Time;durP1;ratioP1;P1;durP2;ratioP2;P2;SDS_P1;SDS_P2;PMS_P1;PMS_P2;Temp;Humidity;BMP_temperature;BMP_pressure;BME280_temperature;BME280_humidity;BME280_pressure;Samples;Min_cycle;Max_cycle;Signal;HPM_P1;HPM_P2
2023/02/20 00:01:32;;;;;;;6.85;4.80;;;;;;;5.25;100.00;101587.94;5087414;28;20051;-78
2023/02/20 00:04:05;;;;;;;6.25;4.28;;;;;;;5.25;100.00;101595.75;5097550;28;20048;-79
2023/02/20 00:06:42;;;;;;;6.00;4.43;;;;;;;5.34;100.00;101592.50;5067910;28;20051;-77
2023/02/20 00:09:08;;;;;;;5.78;4.15;;;;;;;5.39;100.00;101587.44;5087581;28;20122;-76
2023/02/20 00:11:35;;;;;;;6.07;4.25;;;;;;;5.34;100.00;101587.31;5085856;28;20047;-78
2023/02/20 00:14:01;;;;;;;5.97;4.10;;;;;;;5.44;100.00;101572.88;5086580;28;20108;-77
2023/02/20 00:16:28;;;;;;;7.13;4.50;;;;;;;5.43;100.00;101574.56;5086650;28;20050;-80
2023/02/20 00:18:55;;;;;;;4.18;3.38;;;;;;;5.50;100.00;101578.25;5090239;28;20109;-78
2023/02/20 00:21:21;;;;;;;3.75;3.42;;;;;;;5.49;100.00;101578.16;5089715;28;20421;-78
2023/02/20 00:23:48;;;;;;;6.70;4.20;;;;;;;5.42;100.00;101565.03;5103915;28;20783;-79
2023/02/20 00:26:17;;;;;;;7.18;4.63;;;;;;;5.50;100.00;101561.75;5089077;28;20142;-76
2023/02/20 00:28:44;;;;;;;7.03;3.50;;;;;;;5.50;100.00;101547.06;5086690;28;20048;-79
2023/02/20 00:31:17;;;;;;;4.38;3.95;;;;;;;5.51;100.00;101561.78;5070457;28;20047;-79
2023/02/20 00:33:44;;;;;;;4.55;3.83;;;;;;;5.48;100.00;101551.34;5102675;28;20058;-78
2023/02/20 00:36:19;;;;;;;4.38;3.55;;;;;;;5.45;100.00;101554.72;5087523;28;20070;-77
2023/02/20 00:38:46;;;;;;;5.32;3.90;;;;;;;5.48;100.00;101546.16;5086911;28;20469;-78
2023/02/20 00:41:16;;;;;;;4.47;4.07;;;;;;;5.48;100.00;101538.34;5106260;27;20059;-78
2023/02/20 00:43:44;;;;;;;4.32;3.75;;;;;;;5.51;100.00;101545.34;5087328;28;20040;-78
2023/02/20 00:46:13;;;;;;;4.18;3.58;;;;;;;5.45;100.00;101543.47;5071479;28;20085;-78
2023/02/20 00:48:39;;;;;;;4.43;4.03;;;;;;;5.47;100.00;101539.19;5089596;28;20533;-79
2023/02/20 00:51:06;;;;;;;5.88;4.00;;;;;;;5.47;100.00;101528.78;5086265;28;20062;-80
2023/02/20 00:53:32;;;;;;;5.05;4.32;;;;;;;5.52;100.00;101521.13;5080343;28;20039;-77
2023/02/20 00:55:59;;;;;;;5.22;4.22;;;;;;;5.48;100.00;101522.78;5080728;28;20093;-79
2023/02/20 00:58:26;;;;;;;4.65;4.18;;;;;;;5.41;100.00;101526.03;5097906;28;20067;-78
2023/02/20 01:00:52;;;;;;;6.07;4.22;;;;;;;5.49;100.00;101524.53;5084430;28;20048;-79
2023/02/20 01:03:24;;;;;;;5.18;4.35;;;;;;;5.46;100.00;101525.34;5084048;28;20048;-76
2023/02/20 01:05:50;;;;;;;7.50;4.03;;;;;;;5.45;100.00;101517.50;5085813;28;20361;-76
2023/02/20 01:08:32;;;;;;;7.57;4.35;;;;;;;5.39;100.00;101507.81;5084963;28;20054;-75
2023/02/20 01:10:59;;;;;;;4.20;3.80;;;;;;;5.46;100.00;101511.44;5064661;28;20407;-77
2023/02/20 01:13:26;;;;;;;5.88;4.28;;;;;;;5.48;100.00;101512.38;5088781;28;20043;-79
2023/02/20 01:15:52;;;;;;;4.45;3.72;;;;;;;5.49;100.00;101511.53;5106860;28;20040;-78
2023/02/20 01:18:20;;;;;;;5.80;3.65;;;;;;;5.47;100.00;101515.81;5079726;28;20567;-77
2023/02/20 01:20:46;;;;;;;5.63;3.88;;;;;;;5.46;100.00;101514.03;5098808;28;20040;-77
2023/02/20 01:23:13;;;;;;;4.72;3.47;;;;;;;5.43;100.00;101504.47;5096822;28;20478;-77
2023/02/20 01:25:39;;;;;;;6.85;3.95;;;;;;;5.46;100.00;101494.16;5087413;28;20085;-81
2023/02/20 01:28:06;;;;;;;3.70;3.30;;;;;;;5.51;100.00;101493.41;5083779;28;20352;-77
2023/02/20 01:30:33;;;;;;;4.30;3.88;;;;;;;5.57;100.00;101486.63;5088207;28;20044;-79
2023/02/20 01:33:02;;;;;;;6.70;4.10;;;;;;;5.53;100.00;101477.03;5103614;28;20111;-76
2023/02/20 01:35:30;;;;;;;9.10;4.15;;;;;;;5.53;100.00;101464.03;5072600;28;20123;-79
2023/02/20 01:37:59;;;;;;;4.90;3.92;;;;;;;5.52;100.00;101466.59;5084104;28;20056;-78
2023/02/20 01:40:28;;;;;;;3.33;3.00;;;;;;;5.42;100.00;101461.19;5086153;28;20987;-78
2023/02/20 01:42:54;;;;;;;4.88;3.25;;;;;;;5.40;100.00;101459.38;5082332;28;20051;-78
2023/02/20 01:45:31;;;;;;;3.72;3.33;;;;;;;5.32;100.00;101446.22;5085884;28;20768;-80
2023/02/20 01:47:59;;;;;;;3.20;3.00;;;;;;;5.32;100.00;101453.09;5083603;28;20474;-79
2023/02/20 01:50:31;;;;;;;4.43;3.53;;;;;;;5.27;100.00;101453.88;5084781;28;20039;-77
2023/02/20 01:53:07;;;;;;;3.88;3.50;;;;;;;5.26;100.00;101444.31;5071903;28;20040;-78
2023/02/20 01:55:48;;;;;;;4.45;3.63;;;;;;;5.23;100.00;101444.25;5088074;28;20050;-79
2023/02/20 01:58:24;;;;;;;4.15;3.17;;;;;;;5.18;100.00;101432.88;5095797;28;20086;-77
2023/02/20 02:00:50;;;;;;;3.55;3.10;;;;;;;5.17;100.00;101430.22;5084832;28;20401;-78
2023/02/20 02:03:26;;;;;;;5.07;3.67;;;;;;;5.13;100.00;101437.06;5081888;28;20450;-79
2023/02/20 02:05:59;;;;;;;4.28;3.83;;;;;;;5.06;100.00;101420.44;5091717;28;20048;-78
2023/02/20 02:08:27;;;;;;;4.32;3.92;;;;;;;4.99;100.00;101407.28;5102991;27;20051;-78
2023/02/20 02:11:01;;;;;;;6.07;4.10;;;;;;;5.01;100.00;101411.66;5070187;28;20051;-78
2023/02/20 02:13:34;;;;;;;5.63;4.28;;;;;;;4.98;100.00;101396.03;5097916;28;20049;-82
2023/02/20 02:16:41;;;;;;;5.40;4.90;;;;;;;4.91;100.00;101407.06;5099130;28;20035;-81
2023/02/20 02:20:01;;;;;;;7.35;4.05;;;;;;;4.91;100.00;101401.88;5085665;28;20105;-78
2023/02/20 02:23:16;;;;;;;5.95;4.57;;;;;;;4.90;100.00;101392.34;5082753;28;20039;-79
2023/02/20 02:25:52;;;;;;;;;;;;;;;4.78;100.00;101395.47;5087423;28;20042;-78
2023/02/20 02:28:47;;;;;;;5.70;4.35;;;;;;;4.64;100.00;101393.41;5090546;28;19954;-78
2023/02/20 02:32:05;;;;;;;6.22;4.97;;;;;;;4.69;100.00;101366.72;5101748;28;20050;-77
2023/02/20 02:35:17;;;;;;;8.27;5.28;;;;;;;4.62;100.00;101374.31;5070253;28;20028;-78
2023/02/20 02:38:14;;;;;;;8.05;5.63;;;;;;;4.61;100.00;101372.56;5097057;28;20123;-76
2023/02/20 02:40:54;;;;;;;8.63;5.32;;;;;;;4.66;100.00;101372.69;5084593;28;20080;-76
2023/02/20 02:43:41;;;;;;;7.15;5.55;;;;;;;4.63;100.00;101352.75;5086630;28;20050;-78
2023/02/20 02:46:22;;;;;;;9.07;6.03;;;;;;;4.74;100.00;101350.41;5077350;28;20040;-77
2023/02/20 02:49:14;;;;;;;8.27;6.35;;;;;;;4.77;100.00;101342.75;5072221;28;20051;-77
2023/02/20 02:51:44;;;;;;;7.70;5.78;;;;;;;4.75;100.00;101344.41;5087223;28;20042;-77
2023/02/20 02:54:23;;;;;;;10.43;6.05;;;;;;;4.89;100.00;101337.00;5081852;28;20043;-77
2023/02/20 02:56:50;;;;;;;8.02;6.22;;;;;;;5.04;100.00;101340.81;5080163;28;20052;-77
2023/02/20 02:59:36;;;;;;;9.85;6.55;;;;;;;5.13;100.00;101335.84;5085868;28;20051;-77
2023/02/20 03:02:12;;;;;;;6.03;5.00;;;;;;;5.16;100.00;101335.03;5067782;28;20063;-76
2023/02/20 03:04:43;;;;;;;9.82;6.28;;;;;;;5.25;100.00;101333.56;5090113;28;20085;-80
2023/02/20 03:07:15;;;;;;;8.77;6.20;;;;;;;5.29;100.00;101331.88;5099527;28;20044;-80
2023/02/20 03:10:06;;;;;;;7.85;5.32;;;;;;;5.34;100.00;101325.06;5091917;28;20036;-77
2023/02/20 03:12:37;;;;;;;9.50;6.38;;;;;;;5.32;100.00;101321.59;5082952;28;20039;-76
2023/02/20 03:15:31;;;;;;;7.80;5.70;;;;;;;5.29;100.00;101322.41;5088585;28;20043;-77
2023/02/20 03:18:14;;;;;;;9.30;6.10;;;;;;;5.30;100.00;101318.94;5087807;28;20044;-77
2023/02/20 03:20:53;;;;;;;10.60;7.03;;;;;;;5.44;100.00;101319.25;5083652;28;20127;-75
2023/02/20 03:23:31;;;;;;;9.52;6.30;;;;;;;5.48;100.00;101304.63;5088267;28;20772;-77
2023/02/20 03:26:07;;;;;;;9.40;6.35;;;;;;;5.51;100.00;101314.22;5090509;28;20043;-77
2023/02/20 03:28:40;;;;;;;7.97;6.03;;;;;;;5.57;100.00;101312.63;5077011;28;20052;-77
2023/02/20 03:31:12;;;;;;;8.38;6.53;;;;;;;5.61;100.00;101310.97;5088682;28;20085;-78
2023/02/20 03:45:10;;;;;;;10.18;7.15;;;;;;;5.73;100.00;101274.00;5078309;28;20086;-77
2023/02/20 03:48:01;;;;;;;11.30;7.70;;;;;;;5.72;100.00;101280.03;5080319;28;20512;-76
2023/02/20 03:53:13;;;;;;;11.50;7.65;;;;;;;5.66;100.00;101283.38;5094832;28;20046;-77
2023/02/20 03:55:40;;;;;;;11.43;8.48;;;;;;;5.64;100.00;101277.28;5088869;28;20040;-77
2023/02/20 03:58:11;;;;;;;12.57;7.95;;;;;;;5.62;100.00;101266.84;5101748;28;20063;-79
2023/02/20 04:00:47;;;;;;;11.93;8.40;;;;;;;5.60;100.00;101273.72;5091705;28;20051;-78
2023/02/20 04:03:21;;;;;;;12.00;7.88;;;;;;;5.75;100.00;101262.78;5083306;28;20032;-79
2023/02/20 04:05:51;;;;;;;;;;;;;;;5.90;100.00;101271.75;5089433;28;20059;-76
2023/02/20 04:08:24;;;;;;;11.35;9.15;;;;;;;5.87;100.00;101277.75;5087747;28;19969;-79
2023/02/20 04:11:03;;;;;;;14.70;8.88;;;;;;;5.93;100.00;101254.50;5084402;28;20150;-78
2023/02/20 04:13:31;;;;;;;15.05;8.77;;;;;;;6.06;99.75;101253.06;5102333;28;20039;-78
2023/02/20 04:16:01;;;;;;;14.77;9.60;;;;;;;6.03;100.00;101246.91;5100408;28;20635;-77
2023/02/20 04:18:31;;;;;;;13.23;8.90;;;;;;;6.04;100.00;101217.47;5092161;28;20039;-80
2023/02/20 04:21:01;;;;;;;14.70;9.63;;;;;;;6.09;100.00;101250.50;5090132;28;20101;-78
2023/02/20 04:23:30;;;;;;;11.07;8.70;;;;;;;6.07;100.00;101246.13;5079749;28;20153;-78
2023/02/20 04:26:09;;;;;;;12.63;9.02;;;;;;;6.10;99.71;101235.78;5073075;28;20181;-78
2023/02/20 04:28:36;;;;;;;15.50;10.27;;;;;;;6.06;100.00;101229.66;5087666;27;20391;-79
2023/02/20 04:31:03;;;;;;;14.10;9.35;;;;;;;6.08;100.00;101217.56;5085282;28;20056;-77
2023/02/20 04:33:29;;;;;;;14.32;9.77;;;;;;;6.07;100.00;101204.53;5090049;28;20700;-77
2023/02/20 04:35:57;;;;;;;18.10;9.65;;;;;;;6.01;100.00;101181.91;5091556;28;20595;-78
2023/02/20 04:38:24;;;;;;;16.20;9.63;;;;;;;6.10;99.94;101171.69;5103978;28;20048;-77
2023/02/20 04:40:50;;;;;;;13.13;9.93;;;;;;;6.09;99.61;101167.31;5066938;28;20039;-76
2023/02/20 04:43:17;;;;;;;18.48;9.18;;;;;;;6.10;99.93;101168.19;5085097;28;20391;-77
2023/02/20 04:45:43;;;;;;;17.13;9.93;;;;;;;6.06;99.96;101156.00;5085053;28;20057;-78
2023/02/20 04:48:10;;;;;;;16.27;9.82;;;;;;;6.12;100.00;101163.91;5087373;28;20112;-76
2023/02/20 04:50:36;;;;;;;15.70;10.02;;;;;;;6.13;99.67;101178.66;5082854;27;20046;-78
2023/02/20 04:53:03;;;;;;;16.83;9.98;;;;;;;6.09;99.87;101182.06;5078776;28;20059;-78
2023/02/20 04:55:29;;;;;;;12.80;8.77;;;;;;;6.09;100.00;101167.31;5072160;28;20512;-81
2023/02/20 04:57:57;;;;;;;17.95;9.80;;;;;;;6.16;99.66;101170.03;5069651;28;20817;-75
2023/02/20 05:00:25;;;;;;;14.95;8.48;;;;;;;6.17;99.86;101188.25;5091203;28;20043;-74
2023/02/20 05:02:53;;;;;;;13.38;9.15;;;;;;;6.07;100.00;101186.34;5089214;28;20132;-77
2023/02/20 05:05:29;;;;;;;13.68;9.77;;;;;;;6.16;100.00;101188.25;5085721;28;20105;-76
2023/02/20 05:08:05;;;;;;;11.80;8.60;;;;;;;6.24;99.80;101177.09;5081951;28;20534;-77
2023/02/20 05:10:33;;;;;;;12.30;8.88;;;;;;;6.32;99.42;101173.78;5085358;28;20036;-77
2023/02/20 05:13:01;;;;;;;14.00;9.10;;;;;;;6.35;99.44;101168.59;5087834;28;20048;-76
2023/02/20 05:15:29;;;;;;;11.93;8.80;;;;;;;6.46;98.47;101160.13;5099173;28;20734;-77
2023/02/20 05:17:56;;;;;;;14.63;9.68;;;;;;;6.38;99.21;101159.13;5080295;28;20040;-76
2023/02/20 05:22:17;;;;;;;12.57;7.55;;;;;;;6.47;98.82;101163.63;5084873;28;20044;-76
2023/02/20 05:23:09;;;;;;;12.57;8.43;;;;;;;6.43;99.17;101156.63;5085102;28;20108;-76
2023/02/20 05:25:36;;;;;;;11.82;8.13;;;;;;;6.51;98.63;101157.63;5085123;28;20162;-75
2023/02/20 05:28:02;;;;;;;13.15;7.97;;;;;;;6.45;98.86;101165.31;5096592;28;20044;-76
2023/02/20 05:30:29;;;;;;;12.75;8.25;;;;;;;6.34;99.80;101166.88;5095485;28;20050;-76
2023/02/20 05:32:55;;;;;;;11.35;7.55;;;;;;;6.36;99.95;101152.16;5077355;28;20044;-78
2023/02/20 05:35:22;;;;;;;13.75;8.38;;;;;;;6.37;99.75;101154.78;5063472;28;20044;-75
2023/02/20 05:37:48;;;;;;;11.93;8.65;;;;;;;6.35;100.00;101150.41;5085092;28;20051;-74
2023/02/20 05:40:15;;;;;;;12.95;7.85;;;;;;;6.38;99.97;101138.34;5101357;28;20036;-76
2023/02/20 05:42:41;;;;;;;11.80;7.00;;;;;;;6.39;99.53;101129.69;5083933;28;20036;-79
2023/02/20 05:45:08;;;;;;;12.77;7.57;;;;;;;6.41;99.24;101128.00;5081851;28;20070;-79
2023/02/20 05:47:38;;;;;;;12.20;7.00;;;;;;;6.45;99.26;101128.91;5086218;28;20639;-76
2023/02/20 05:50:08;;;;;;;10.93;6.88;;;;;;;6.44;99.18;101137.56;5084953;28;20043;-76
2023/02/20 05:52:34;;;;;;;11.25;6.03;;;;;;;6.42;99.27;101124.53;5096639;27;20477;-80
2023/02/20 05:55:01;;;;;;;14.45;7.03;;;;;;;6.43;99.03;101115.88;5083167;28;20055;-77
2023/02/20 05:57:27;;;;;;;11.57;5.93;;;;;;;6.46;98.75;101108.13;5076600;28;20587;-77
2023/02/20 05:59:54;;;;;;;12.13;6.43;;;;;;;6.46;98.57;101099.44;5079130;28;20088;-76
2023/02/20 06:02:21;;;;;;;9.45;5.43;;;;;;;6.55;98.35;101098.72;5087969;28;20071;-77
2023/02/20 06:04:48;;;;;;;15.45;6.65;;;;;;;6.58;98.25;101110.06;5077882;28;20123;-77
2023/02/20 06:07:15;;;;;;;9.80;5.40;;;;;;;6.65;97.37;101087.59;5098413;27;20053;-77
2023/02/20 06:09:44;;;;;;;9.13;5.72;;;;;;;6.62;97.31;101098.84;5097861;28;20131;-77
2023/02/20 06:12:11;;;;;;;10.68;5.15;;;;;;;6.53;98.16;101106.50;5082546;28;20032;-78
2023/02/20 06:14:37;;;;;;;10.45;5.20;;;;;;;6.55;97.83;101088.31;5081866;28;20552;-76
2023/02/20 06:17:04;;;;;;;8.50;5.15;;;;;;;6.59;97.67;101075.34;5071611;28;20040;-77
2023/02/20 06:19:30;;;;;;;12.30;5.70;;;;;;;6.65;97.78;101073.69;5084501;28;20047;-78
2023/02/20 06:21:58;;;;;;;9.77;5.43;;;;;;;6.68;96.81;101098.03;5067217;28;20070;-79
2023/02/20 06:24:24;;;;;;;11.35;5.38;;;;;;;6.62;97.45;101106.63;5069559;28;20105;-80
2023/02/20 06:26:52;;;;;;;8.70;4.72;;;;;;;6.69;97.09;101086.78;5079437;28;20378;-78
2023/02/20 06:29:19;;;;;;;10.52;5.13;;;;;;;6.64;97.52;101101.47;5077422;28;20048;-78
2023/02/20 06:31:46;;;;;;;8.18;5.15;;;;;;;6.65;97.42;101100.59;5085128;28;20059;-78
2023/02/20 06:34:13;;;;;;;9.52;4.97;;;;;;;6.71;97.42;101085.06;5077814;28;20127;-79
2023/02/20 06:36:42;;;;;;;8.05;5.03;;;;;;;6.70;97.03;101100.66;5068846;28;20113;-77
2023/02/20 06:39:11;;;;;;;10.55;4.97;;;;;;;6.69;97.22;101101.50;5086990;28;20396;-77
2023/02/20 06:41:38;;;;;;;12.45;5.20;;;;;;;6.81;96.25;101106.03;5084290;28;20040;-78
2023/02/20 06:44:05;;;;;;;9.32;4.97;;;;;;;6.72;97.26;101096.38;5089269;28;20044;-78
2023/02/20 06:46:31;;;;;;;14.32;5.63;;;;;;;6.64;97.53;101087.59;5104212;28;20044;-77
2023/02/20 06:48:59;;;;;;;14.25;4.97;;;;;;;6.68;97.19;101105.84;5084838;28;20032;-77
2023/02/20 06:51:30;;;;;;;10.77;6.47;;;;;;;6.74;97.01;101099.84;5073333;28;20079;-78
2023/02/20 06:53:57;;;;;;;9.13;5.45;;;;;;;6.77;96.70;101111.19;5081268;28;20047;-78
2023/02/20 06:56:28;;;;;;;8.80;5.53;;;;;;;6.82;96.12;101112.97;5104638;27;20055;-78
2023/02/20 06:58:55;;;;;;;11.98;5.53;;;;;;;6.73;96.57;101124.13;5089436;28;20040;-78
2023/02/20 07:01:27;;;;;;;10.05;5.25;;;;;;;6.66;96.18;101117.09;5088301;28;20093;-78
2023/02/20 07:03:54;;;;;;;13.00;6.72;;;;;;;6.58;96.99;101128.25;5110698;28;20940;-76
2023/02/20 07:06:25;;;;;;;14.55;6.32;;;;;;;6.58;96.64;101119.56;5087181;28;20050;-77
2023/02/20 07:08:52;;;;;;;9.55;6.25;;;;;;;6.58;96.76;101127.38;5092062;28;20044;-76
2023/02/20 07:11:21;;;;;;;13.05;7.07;;;;;;;6.56;96.02;101131.69;5086034;28;20520;-80
2023/02/20 07:13:48;;;;;;;12.02;6.85;;;;;;;6.49;96.31;101120.28;5106180;28;20063;-76
2023/02/20 07:16:15;;;;;;;10.35;6.40;;;;;;;6.59;95.61;101101.38;5089208;28;20565;-78
2023/02/20 07:18:41;;;;;;;19.70;6.07;;;;;;;6.54;96.20;101117.78;5100257;28;20071;-79
2023/02/20 07:21:09;;;;;;;14.95;7.90;;;;;;;6.51;96.34;101099.53;5089297;28;20050;-78
2023/02/20 07:23:35;;;;;;;14.98;7.28;;;;;;;6.50;96.57;101098.63;5087379;28;20036;-76
2023/02/20 07:26:02;;;;;;;10.13;7.82;;;;;;;6.52;95.96;101096.94;5085400;28;20055;-80
2023/02/20 07:28:28;;;;;;;10.32;7.70;;;;;;;6.51;96.05;101104.75;5101925;28;20147;-80
2023/02/20 07:30:55;;;;;;;9.90;7.28;;;;;;;6.48;96.35;101100.38;5072490;28;20044;-78
2023/02/20 07:33:21;;;;;;;15.07;9.13;;;;;;;6.43;96.86;101089.88;5092217;28;20043;-80
2023/02/20 07:35:50;;;;;;;11.43;7.20;;;;;;;6.44;96.88;101085.53;5091610;28;20122;-79
2023/02/20 07:38:16;;;;;;;15.55;8.60;;;;;;;6.47;96.43;101088.19;5095575;28;20066;-76
2023/02/20 07:40:43;;;;;;;11.65;7.97;;;;;;;6.51;96.28;101082.19;5082345;28;20051;-76
2023/02/20 07:43:10;;;;;;;12.63;7.72;;;;;;;6.49;96.40;101085.63;5104082;28;20036;-78
2023/02/20 07:45:38;;;;;;;14.77;7.70;;;;;;;6.43;96.49;101094.22;5091878;28;20036;-77
2023/02/20 07:48:08;;;;;;;15.75;9.38;;;;;;;6.46;96.55;101094.25;5105093;27;20027;-77
2023/02/20 07:50:34;;;;;;;10.85;8.23;;;;;;;6.50;96.48;101095.19;5097480;28;20047;-81
2023/02/20 07:53:03;;;;;;;14.40;8.30;;;;;;;6.49;96.64;101112.50;5084949;28;20104;-79
2023/02/20 07:55:30;;;;;;;15.05;9.52;;;;;;;6.52;96.14;101109.94;5073520;28;20038;-75
2023/02/20 07:57:57;;;;;;;14.02;9.52;;;;;;;6.59;95.88;101108.31;5087819;28;20031;-76
2023/02/20 08:00:26;;;;;;;16.08;9.00;;;;;;;6.57;95.75;101102.19;5097830;28;20052;-77
2023/02/20 08:02:54;;;;;;;17.17;9.50;;;;;;;6.59;95.75;101113.53;5103137;28;20040;-75
2023/02/20 08:05:20;;;;;;;14.77;9.00;;;;;;;6.60;95.68;101103.13;5087474;28;20051;-75
2023/02/20 08:07:49;;;;;;;13.88;8.60;;;;;;;6.59;95.72;101103.97;5079500;28;20033;-75
2023/02/20 08:10:18;;;;;;;16.05;10.43;;;;;;;6.55;96.50;101102.19;5097156;28;20044;-76
2023/02/20 08:12:45;;;;;;;17.75;11.10;;;;;;;6.58;96.04;101094.44;5082326;28;20080;-78
2023/02/20 08:15:12;;;;;;;14.18;10.75;;;;;;;6.57;96.33;101097.91;5100284;28;20127;-77
2023/02/20 08:17:40;;;;;;;15.27;10.55;;;;;;;6.64;96.12;101091.06;5078814;28;20032;-75
2023/02/20 08:20:08;;;;;;;14.00;11.02;;;;;;;6.67;95.42;101079.81;5093948;28;20043;-78
2023/02/20 08:22:35;;;;;;;16.13;10.68;;;;;;;6.70;94.85;101092.84;5082294;28;20139;-76
2023/02/20 08:25:03;;;;;;;17.35;10.73;;;;;;;6.68;95.34;101089.38;5100763;28;20043;-76
2023/02/20 08:27:29;;;;;;;23.63;12.13;;;;;;;6.66;95.10;101078.91;5084970;28;20557;-75
2023/02/20 08:29:56;;;;;;;15.73;11.63;;;;;;;6.73;95.17;101091.19;5092710;28;20052;-76
2023/02/20 08:32:23;;;;;;;16.10;12.27;;;;;;;6.75;94.26;101083.38;5067671;28;20055;-79
2023/02/20 08:34:49;;;;;;;14.98;11.80;;;;;;;6.82;94.02;101080.03;5085491;28;20097;-75
2023/02/20 08:37:16;;;;;;;18.15;13.25;;;;;;;6.87;93.72;101072.25;5086450;28;20040;-75
2023/02/20 08:39:43;;;;;;;18.30;13.05;;;;;;;6.96;93.51;101082.78;5086171;28;20077;-76
2023/02/20 08:42:09;;;;;;;21.05;12.80;;;;;;;7.03;92.48;101079.41;5106948;28;20047;-76
2023/02/20 08:44:36;;;;;;;20.48;14.90;;;;;;;7.05;92.02;101075.13;5085858;28;20039;-76
2023/02/20 08:47:02;;;;;;;23.48;14.18;;;;;;;7.06;92.44;101070.78;5083446;28;20450;-76
2023/02/20 08:49:29;;;;;;;17.83;13.52;;;;;;;7.08;92.80;101076.88;5084401;28;20089;-77
2023/02/20 08:51:57;;;;;;;19.88;13.88;;;;;;;7.17;92.25;101078.72;5086759;28;20043;-79
2023/02/20 08:54:24;;;;;;;22.88;15.57;;;;;;;7.25;92.03;101090.09;5087511;28;20108;-73
2023/02/20 08:56:50;;;;;;;25.02;14.90;;;;;;;7.26;91.61;101069.28;5086590;28;20044;-75
2023/02/20 08:59:17;;;;;;;27.30;14.70;;;;;;;7.26;91.83;101074.50;5104950;28;20130;-75
2023/02/20 09:01:43;;;;;;;19.75;13.43;;;;;;;7.29;91.54;101082.31;5073281;28;20465;-81
2023/02/20 09:04:11;;;;;;;28.20;14.85;;;;;;;7.26;92.49;101084.03;5097709;28;20035;-75
2023/02/20 09:06:37;;;;;;;24.75;16.02;;;;;;;7.28;92.67;101072.75;5090790;28;20065;-78
2023/02/20 09:09:05;;;;;;;24.92;13.75;;;;;;;7.34;93.06;101074.59;5098937;28;20040;-77
2023/02/20 09:11:32;;;;;;;21.73;14.32;;;;;;;7.38;93.08;101071.16;5096231;28;20046;-76
2023/02/20 09:13:58;;;;;;;28.50;14.98;;;;;;;7.42;93.15;101064.25;5088807;28;20436;-78
2023/02/20 09:16:27;;;;;;;21.95;15.02;;;;;;;7.42;93.14;101059.03;5064720;28;20763;-76
2023/02/20 09:18:54;;;;;;;24.17;15.73;;;;;;;7.36;93.81;101065.03;5098327;28;20044;-77
2023/02/20 09:21:21;;;;;;;21.48;13.93;;;;;;;7.27;94.78;101068.44;5064116;28;20071;-75
2023/02/20 09:23:48;;;;;;;23.52;15.43;;;;;;;7.31;94.88;101039.81;5067045;28;20040;-75
2023/02/20 09:26:17;;;;;;;22.55;15.05;;;;;;;7.23;95.75;101042.34;5088841;28;20043;-80
2023/02/20 09:28:46;;;;;;;25.52;15.05;;;;;;;7.20;96.25;101026.69;5073366;28;20489;-76
2023/02/20 09:31:13;;;;;;;26.67;16.05;;;;;;;7.16;96.61;101044.00;5084127;28;20032;-76
2023/02/20 09:33:47;;;;;;;19.75;14.25;;;;;;;7.18;97.09;101020.56;5100123;28;20092;-74
2023/02/20 09:36:13;;;;;;;27.02;14.35;;;;;;;7.23;97.32;101026.72;5085821;28;20052;-78
2023/02/20 09:38:39;;;;;;;26.35;15.70;;;;;;;7.28;97.74;101027.63;5099245;28;20043;-75
2023/02/20 09:41:42;;;;;;;18.13;13.02;;;;;;;7.25;97.79;101030.22;5074975;28;20054;-75
2023/02/20 09:44:24;;;;;;;23.20;14.98;;;;;;;7.32;97.83;101032.00;5101941;28;20142;-75
2023/02/20 09:46:53;;;;;;;23.42;14.45;;;;;;;7.37;97.82;101025.13;5076947;28;20040;-76
2023/02/20 09:49:26;;;;;;;22.38;14.15;;;;;;;7.35;98.16;100995.56;5070231;28;20051;-78
2023/02/20 09:51:56;;;;;;;23.45;15.13;;;;;;;7.38;98.69;101000.81;5105021;27;20051;-76
2023/02/20 09:54:37;;;;;;;21.80;15.20;;;;;;;7.44;98.59;100986.97;5100163;28;20043;-75
2023/02/20 09:57:11;;;;;;;20.50;14.27;;;;;;;7.45;98.34;100992.19;5102829;28;20477;-78
2023/02/20 10:00:05;;;;;;;19.45;13.68;;;;;;;7.43;98.98;100998.25;5105105;28;20047;-77
2023/02/20 10:02:38;;;;;;;18.60;13.60;;;;;;;7.39;99.56;100996.47;5093912;28;20482;-75
2023/02/20 10:05:21;;;;;;;22.88;15.02;;;;;;;7.39;99.88;101001.69;5086815;28;20052;-75
2023/02/20 10:07:50;;;;;;;22.90;13.83;;;;;;;7.38;100.00;100998.22;5082161;28;20562;-75
2023/02/20 10:10:25;;;;;;;21.20;14.45;;;;;;;7.35;100.00;100992.09;5081891;28;20309;-75
2023/02/20 10:13:28;;;;;;;22.23;14.40;;;;;;;7.36;100.00;100993.84;5083440;28;20036;-77
2023/02/20 10:16:30;;;;;;;28.73;15.45;;;;;;;7.33;100.00;100980.81;5098317;28;20099;-76
2023/02/20 10:19:34;;;;;;;24.27;13.20;;;;;;;7.34;100.00;100983.44;5053189;28;20058;-79
2023/02/20 10:22:27;;;;;;;25.10;14.53;;;;;;;7.36;100.00;100986.03;5100597;28;20048;-77
2023/02/20 10:25:31;;;;;;;28.95;15.13;;;;;;;7.31;100.00;100975.56;5084340;28;20044;-77
2023/02/20 10:28:17;;;;;;;27.63;14.25;;;;;;;7.33;100.00;100944.34;5066648;28;20490;-76
2023/02/20 10:30:56;;;;;;;21.10;14.38;;;;;;;7.28;100.00;100988.56;5044722;28;20047;-78
2023/02/20 10:33:42;;;;;;;26.77;13.77;;;;;;;7.27;100.00;100990.31;5093088;28;20052;-79
2023/02/20 10:36:17;;;;;;;23.23;13.32;;;;;;;7.27;100.00;101007.66;5085893;28;20044;-76
2023/02/20 10:38:51;;;;;;;23.13;14.07;;;;;;;7.24;100.00;100963.38;5077374;28;20046;-77
2023/02/20 10:41:29;;;;;;;;;;;;;;;7.22;100.00;101004.13;5081829;28;20058;-76
2023/02/20 10:44:28;;;;;;;21.80;13.65;;;;;;;7.21;100.00;101002.38;5097167;28;19935;-76
2023/02/20 10:47:12;;;;;;;27.77;15.32;;;;;;;7.26;100.00;101000.69;5080291;28;20058;-77
2023/02/20 10:49:43;;;;;;;24.10;14.52;;;;;;;7.21;100.00;100999.78;5079515;28;20051;-78
2023/02/20 10:52:20;;;;;;;21.15;14.00;;;;;;;7.20;100.00;100992.84;5074826;28;20036;-76
2023/02/20 10:55:06;;;;;;;25.70;14.73;;;;;;;7.19;100.00;100997.16;5075205;28;20046;-77
2023/02/20 10:58:02;;;;;;;23.15;14.77;;;;;;;7.17;100.00;100998.00;5056314;28;20043;-77
2023/02/20 11:00:50;;;;;;;23.48;14.63;;;;;;;7.21;100.00;100999.78;5074184;28;20048;-76
2023/02/20 11:03:37;;;;;;;30.35;15.43;;;;;;;7.18;100.00;100995.41;5080774;28;20051;-77
2023/02/20 11:06:07;;;;;;;23.67;16.38;;;;;;;7.17;100.00;101011.91;5082663;28;20042;-76
2023/02/20 11:08:35;;;;;;;28.90;16.48;;;;;;;7.13;100.00;101010.09;5069511;28;20040;-76
2023/02/20 11:11:22;;;;;;;32.75;17.63;;;;;;;7.17;100.00;101008.41;5079290;28;20043;-76
2023/02/20 11:13:48;;;;;;;30.40;15.60;;;;;;;7.21;100.00;101018.88;5075644;28;20040;-77
2023/02/20 11:16:28;;;;;;;28.13;16.33;;;;;;;7.19;100.00;101014.53;5078073;28;20128;-78
2023/02/20 11:19:04;;;;;;;27.40;16.45;;;;;;;7.21;100.00;100998.06;5094874;28;20122;-76
2023/02/20 11:21:41;;;;;;;31.02;18.27;;;;;;;7.16;100.00;101007.56;5079865;28;20043;-77
2023/02/20 11:24:38;;;;;;;30.30;16.55;;;;;;;7.17;100.00;101027.53;5096716;28;20040;-76
2023/02/20 11:27:20;;;;;;;28.40;16.70;;;;;;;7.10;100.00;101023.97;5095573;28;20039;-80
2023/02/20 11:30:31;;;;;;;29.73;17.70;;;;;;;7.15;100.00;100987.56;5090899;28;20052;-77
2023/02/20 11:33:21;;;;;;;25.75;16.77;;;;;;;7.27;100.00;101008.53;5061822;28;20051;-77
2023/02/20 11:35:52;;;;;;;26.42;16.30;;;;;;;7.29;100.00;101006.81;5098334;28;20050;-80
2023/02/20 11:38:29;;;;;;;24.08;15.82;;;;;;;7.28;100.00;100999.84;5097065;28;20055;-78
2023/02/20 11:41:00;;;;;;;26.02;14.27;;;;;;;7.34;100.00;100992.94;5096880;28;20036;-77
2023/02/20 11:43:44;;;;;;;26.92;16.30;;;;;;;7.33;100.00;100981.69;5083522;28;20044;-78
2023/02/20 11:46:22;;;;;;;21.58;14.57;;;;;;;7.31;100.00;100999.00;5080732;28;20039;-81
2023/02/20 11:49:30;;;;;;;28.50;15.30;;;;;;;7.28;100.00;100998.97;5067727;27;20046;-77
2023/02/20 11:52:24;;;;;;;31.27;16.58;;;;;;;7.25;100.00;100992.00;5097836;28;20064;-76
2023/02/20 11:55:23;;;;;;;27.67;16.60;;;;;;;7.32;100.00;100972.13;5088115;28;20050;-79
2023/02/20 11:57:50;;;;;;;31.17;16.85;;;;;;;7.27;100.00;100977.28;5084744;28;20037;-81
2023/02/20 12:00:26;;;;;;;32.88;16.27;;;;;;;7.25;100.00;100963.38;5082524;28;20051;-80
2023/02/20 12:03:08;;;;;;;30.15;16.63;;;;;;;7.26;100.00;100964.22;5083987;28;20048;-81